• Join FlightAware (Why Join?)
  • Login
  • US Flag 
02:16PM EDT


 

Airport Tracker/Info


-or-


 

Live Flight TrackerFlight Track Log ✈ BER7688 ✈ 20-Apr-2013 ✈ LEPA / PMI - LEAS / OVD

Flight Track Log - Related Links

Times and Time Zones

All times are in EDT time to prevent confusion due to time zone crossing. See the BER7688 flight status page for this flight to view local times or setup timezone preferences in your user account.

Time Position Orientation Groundspeed Altitude Reporting Facility
EDT Latitude Longitude Course Direction KTS MPH feet Rate Location/Type
09:37AM 40.8247 0.2193 304° West  Level Estimated
09:38AM 40.8765 0.1123 303° West  Level Estimated
09:39AM 40.9283 0.0051 303° West  Level Estimated
09:40AM 40.9799 -0.1023 303° West  Level Estimated
09:41AM 41.0314 -0.2099 302° West  Level Estimated
09:42AM 41.0829 -0.3176 302° West  Level Estimated
09:43AM 41.1342 -0.4255 302° West  Level Estimated
09:44AM 41.1855 -0.5335 302° West  Level Estimated
09:45AM 41.2366 -0.6417 302° West  Level Estimated
09:46AM 41.2876 -0.7501 302° West  Level Estimated
09:47AM 41.3386 -0.8587 302° West  Level Estimated
09:48AM 41.3894 -0.9674 302° West  Level Estimated
09:49AM 41.4401 -1.0763 302° West  Level Estimated
09:50AM 41.4908 -1.1854 302° West  Level Estimated
09:51AM 41.5413 -1.2946 302° West  Level Estimated
09:52AM 41.5917 -1.4040 302° West  Level Estimated
09:53AM 41.6420 -1.5136 302° West  Level Estimated
09:54AM 41.6922 -1.6234 302° West  Level Estimated
09:55AM 41.7423 -1.7333 301° West  Level Estimated
09:56AM 41.7923 -1.8434 301° West  Level Estimated
09:57AM 41.8422 -1.9537 301° West  Level Estimated
09:58AM 41.8920 -2.0641 301° West  Level Estimated
09:59AM 41.9417 -2.1747 301° West  Level Estimated
10:00AM 41.9913 -2.2855 301° West  Level Estimated
10:01AM 42.0408 -2.3965 301° West  Level Estimated
10:02AM 42.0901 -2.5076 301° West  Level Estimated
10:03AM 42.1394 -2.6189 301° West  Level Estimated
10:04AM 42.1885 -2.7304 301° West  Level Estimated
10:05AM 42.2376 -2.8421 301° West  Level Estimated
10:06AM 42.2865 -2.9539 301° West  Level Estimated
10:07AM 42.3353 -3.0659 301° West  Level Estimated
10:08AM 42.3841 -3.1781 300° West  Level Estimated
10:09AM 42.4327 -3.2904 300° West  Level Estimated
10:10AM 42.4812 -3.4029 300° West  Level Estimated
10:11AM 42.5296 -3.5156 300° West  Level Estimated
10:12AM 42.5778 -3.6285 300° West  Level Estimated
10:13AM 42.6260 -3.7415 300° West  Level Estimated
10:14AM 42.6740 -3.8548 300° West  Level Estimated
10:15AM 42.7220 -3.9681 300° West  Level Estimated
10:16AM 42.7698 -4.0817 300° West  Level Estimated
10:17AM 42.8175 -4.1955 300° West  Level Estimated
10:18AM 42.8651 -4.3094 300° West  Level Estimated
10:19AM 42.9126 -4.4235 300° West  Level Estimated
10:20AM 42.9600 -4.5378 300° West  Level Estimated
10:21AM 43.0073 -4.6522 299° West  Level Estimated
10:22AM 43.0544 -4.7668 299° West  Level Estimated
10:23AM 43.1015 -4.8816 299° West  Level Estimated
10:24AM 43.1484 -4.9966 299° West  Level Estimated
10:25AM 43.1952 -5.1118 299° West  Level Estimated
10:26AM 43.2419 -5.2271 299° West  Level Estimated
10:27AM 43.2884 -5.3426 299° West  Level Estimated
10:28AM 43.3349 -5.4583 299° West  Level Estimated
10:29AM 43.3812 -5.5741 299° West  Level Estimated
10:30AM 43.4275 -5.6902 299° West  Level Estimated
10:31AM 43.4736 -5.8064 299° West  Level Estimated
10:32AM 43.5196 -5.9228 299° West  Level Estimated
10:33AM 43.5636 -6.0346 299° West  Level Estimated
10:34AM 43.5636 -6.0346 206° Southwest  Level Estimated
10:35AM 43.5636 -6.0346 206° Southwest  Level Estimated
10:36AM 43.5636 -6.0346 206° Southwest  Level Estimated
10:37AM 43.5636 -6.0346 206° Southwest  Level Estimated
10:38AM 43.5636 -6.0346 206° Southwest  Level Estimated
10:39AM 43.5636 -6.0346 206° Southwest  Level Estimated
10:40AM 43.5636 -6.0346 206° Southwest  Level Estimated
10:41AM 43.5636 -6.0346 206° Southwest  Level Estimated
10:42AM 43.5636 -6.0346 206° Southwest  Level Estimated
10:43AM 43.5636 -6.0346 206° Southwest  Level Estimated
10:44AM 43.5636 -6.0346 206° Southwest  Level Estimated
10:45AM 43.5636 -6.0346 206° Southwest  Level Estimated
10:46AM 43.5636 -6.0346 206° Southwest  Level Estimated
10:47AM 43.5636 -6.0346 206° Southwest  Level Estimated
10:48AM 43.5636 -6.0346 206° Southwest  Level Estimated
10:49AM 43.5636 -6.0346 206° Southwest  Level Estimated